createdAt,value
2017-12-25T00:00:49.144Z,64.10
2017-12-25T00:03:16.745Z,63.70
2017-12-25T00:05:44.319Z,63.60
2017-12-25T00:08:11.858Z,63.90
2017-12-25T00:10:39.402Z,63.80
2017-12-25T00:13:08.456Z,63.80
2017-12-25T00:15:36.761Z,63.80
2017-12-25T00:18:04.338Z,63.80
2017-12-25T00:20:31.900Z,64.20
2017-12-25T00:22:59.470Z,63.90
2017-12-25T00:25:27.053Z,63.90
2017-12-25T00:27:56.140Z,64.10
2017-12-25T00:30:23.704Z,64.00
2017-12-25T00:32:53.269Z,64.00
2017-12-25T00:35:20.821Z,64.20
2017-12-25T00:37:48.407Z,64.10
2017-12-25T00:40:15.953Z,64.40
2017-12-25T00:42:43.472Z,64.40
2017-12-25T00:45:11.136Z,64.40
2017-12-25T00:47:38.679Z,64.40
2017-12-25T00:50:07.006Z,64.70
2017-12-25T00:52:34.558Z,64.70
2017-12-25T00:55:02.102Z,64.70
2017-12-25T00:57:29.743Z,64.40
2017-12-25T00:59:57.325Z,64.60
2017-12-25T01:02:24.858Z,64.70
2017-12-25T01:04:53.832Z,64.80
2017-12-25T01:07:21.359Z,65.10
2017-12-25T01:09:48.894Z,65.00
2017-12-25T01:12:16.489Z,64.70
2017-12-25T01:14:44.018Z,65.00
2017-12-25T01:17:11.567Z,65.10
2017-12-25T01:19:39.133Z,65.30
2017-12-25T01:22:06.692Z,65.20
2017-12-25T01:24:35.103Z,65.30
2017-12-25T01:27:02.722Z,65.10
2017-12-25T01:29:31.046Z,64.40
2017-12-25T01:31:58.624Z,64.40
2017-12-25T01:34:26.172Z,64.10
2017-12-25T01:36:53.746Z,64.20
2017-12-25T01:39:21.314Z,64.30
2017-12-25T01:41:49.670Z,64.50
2017-12-25T01:44:17.261Z,64.40
2017-12-25T01:46:56.644Z,64.70
2017-12-25T01:49:24.192Z,64.40
2017-12-25T01:51:51.804Z,64.50
2017-12-25T01:54:20.137Z,64.30
2017-12-25T01:56:48.288Z,64.30
2017-12-25T01:59:16.811Z,64.60
2017-12-25T02:01:50.841Z,64.50
2017-12-25T02:04:22.086Z,64.40
2017-12-25T02:07:01.277Z,64.80
2017-12-25T02:09:28.839Z,64.80
2017-12-25T02:11:56.401Z,65.00
2017-12-25T02:14:23.927Z,65.00
2017-12-25T02:16:52.262Z,64.80
2017-12-25T02:19:19.792Z,64.70
2017-12-25T02:21:47.372Z,64.60
2017-12-25T02:24:14.924Z,64.80
2017-12-25T02:26:42.441Z,64.80
2017-12-25T02:29:10.804Z,65.10
2017-12-25T02:31:38.389Z,65.10
2017-12-25T02:34:06.595Z,65.00
2017-12-25T02:36:34.161Z,65.60
2017-12-25T02:39:01.738Z,65.50
2017-12-25T02:41:29.294Z,65.00
2017-12-25T02:43:56.822Z,64.60
2017-12-25T02:46:24.377Z,65.00
2017-12-25T02:48:51.965Z,65.10
2017-12-25T02:51:19.527Z,65.10
2017-12-25T02:53:47.083Z,65.10
2017-12-25T02:56:14.618Z,65.00
2017-12-25T02:58:42.181Z,64.70
2017-12-25T03:01:09.778Z,64.80
2017-12-25T03:03:37.339Z,64.30
2017-12-25T03:06:04.901Z,64.10
2017-12-25T03:08:32.469Z,64.10
2017-12-25T03:11:00.002Z,63.70
2017-12-25T03:13:27.583Z,63.50
2017-12-25T03:15:55.211Z,63.50
2017-12-25T03:18:22.772Z,63.40
2017-12-25T03:20:50.332Z,63.30
2017-12-25T03:23:17.903Z,63.20
2017-12-25T03:25:45.478Z,63.20
2017-12-25T03:28:13.005Z,63.30
2017-12-25T03:30:40.538Z,63.50
2017-12-25T03:33:09.708Z,63.10
2017-12-25T03:35:37.225Z,63.00
2017-12-25T03:38:04.798Z,62.80
2017-12-25T03:40:32.356Z,62.70
2017-12-25T03:42:59.926Z,62.50
2017-12-25T03:45:27.506Z,61.80
2017-12-25T03:47:55.050Z,62.20
2017-12-25T03:50:23.012Z,62.00
2017-12-25T03:52:50.578Z,62.00
2017-12-25T03:55:18.080Z,61.80
2017-12-25T03:57:45.679Z,61.60
2017-12-25T04:00:13.231Z,61.50
2017-12-25T04:02:40.756Z,61.30
2017-12-25T04:05:08.344Z,61.70
2017-12-25T04:07:35.870Z,61.60
2017-12-25T04:10:04.636Z,60.90
2017-12-25T04:12:32.204Z,60.90
2017-12-25T04:14:59.772Z,60.70
2017-12-25T04:17:27.363Z,60.40
2017-12-25T04:19:54.886Z,60.40
2017-12-25T04:22:22.886Z,60.30
2017-12-25T04:24:50.489Z,60.10
2017-12-25T04:27:18.019Z,60.40
2017-12-25T04:29:45.551Z,60.30
2017-12-25T04:32:13.119Z,60.30
2017-12-25T04:34:40.664Z,60.20
2017-12-25T04:37:08.224Z,60.40
2017-12-25T04:39:35.751Z,60.40
2017-12-25T04:42:03.323Z,60.00
2017-12-25T04:44:30.864Z,60.00
2017-12-25T04:46:58.436Z,60.00
2017-12-25T04:49:25.962Z,59.90
2017-12-25T04:51:53.574Z,59.50
2017-12-25T04:54:21.120Z,59.80
2017-12-25T04:56:49.559Z,60.00
2017-12-25T04:59:17.229Z,60.30
2017-12-25T05:01:44.807Z,60.70
2017-12-25T05:04:12.401Z,61.50
2017-12-25T05:06:39.975Z,61.60
2017-12-25T05:09:08.360Z,61.50
2017-12-25T05:11:35.954Z,61.50
2017-12-25T05:14:04.488Z,61.70
2017-12-25T05:16:32.044Z,61.30
2017-12-25T05:19:00.414Z,61.70
2017-12-25T05:21:27.996Z,61.60
2017-12-25T05:23:56.336Z,61.50
2017-12-25T05:26:23.897Z,61.50
2017-12-25T05:28:51.407Z,61.70
2017-12-25T05:31:19.983Z,61.50
2017-12-25T05:33:47.537Z,61.60
2017-12-25T05:36:15.848Z,61.90
2017-12-25T05:38:43.427Z,61.90
2017-12-25T05:41:10.944Z,62.00
2017-12-25T05:43:38.523Z,62.00
2017-12-25T05:46:06.140Z,61.70
2017-12-25T05:48:33.749Z,61.60
2017-12-25T05:51:01.277Z,61.90
2017-12-25T05:53:28.848Z,62.00
2017-12-25T05:55:56.429Z,61.80
2017-12-25T05:58:24.013Z,61.70
2017-12-25T06:00:51.604Z,61.40
2017-12-25T06:03:20.443Z,61.70
2017-12-25T06:05:48.209Z,61.70
2017-12-25T06:08:15.774Z,61.70
2017-12-25T06:10:43.326Z,61.30
2017-12-25T06:13:10.914Z,61.50
2017-12-25T06:15:38.448Z,61.70
2017-12-25T06:18:05.979Z,61.40
2017-12-25T06:20:33.584Z,61.30
2017-12-25T06:23:01.184Z,61.20
2017-12-25T06:25:29.636Z,61.10
2017-12-25T06:27:59.019Z,61.00
2017-12-25T06:30:26.575Z,61.10
2017-12-25T06:32:54.159Z,61.20
2017-12-25T06:35:21.703Z,61.80
2017-12-25T06:37:49.269Z,61.90
2017-12-25T06:40:16.805Z,61.60
2017-12-25T06:42:44.414Z,61.80
2017-12-25T06:45:11.945Z,61.90
2017-12-25T06:47:40.086Z,62.00
2017-12-25T06:50:08.416Z,61.80
2017-12-25T06:52:36.780Z,61.90
2017-12-25T06:55:05.193Z,61.90
2017-12-25T06:57:32.811Z,61.70
2017-12-25T07:00:00.418Z,61.50
2017-12-25T07:02:28.051Z,61.30
2017-12-25T07:04:55.683Z,61.30
2017-12-25T07:07:23.285Z,61.20
2017-12-25T07:09:50.810Z,61.70
2017-12-25T07:12:18.359Z,61.60
2017-12-25T07:14:45.928Z,62.00
2017-12-25T07:17:13.708Z,61.80
2017-12-25T07:19:41.250Z,61.30
2017-12-25T07:22:08.852Z,61.40
2017-12-25T07:24:36.444Z,61.40
2017-12-25T07:27:03.988Z,61.80
2017-12-25T07:29:31.548Z,61.80
2017-12-25T07:31:59.897Z,62.10
2017-12-25T07:34:27.452Z,62.10
2017-12-25T07:36:55.018Z,62.10
2017-12-25T07:39:22.652Z,62.00
2017-12-25T07:41:50.252Z,62.30
2017-12-25T07:44:17.786Z,62.00
2017-12-25T07:46:45.386Z,62.40
2017-12-25T07:49:12.935Z,62.10
2017-12-25T07:51:41.249Z,62.10
2017-12-25T07:54:08.833Z,62.10
2017-12-25T07:56:36.391Z,62.00
2017-12-25T07:59:03.927Z,62.30
2017-12-25T08:01:31.515Z,61.90
2017-12-25T08:03:59.091Z,62.30
2017-12-25T08:06:26.651Z,62.40
2017-12-25T08:08:54.255Z,62.60
2017-12-25T08:11:21.794Z,63.30
2017-12-25T08:13:49.355Z,63.00
2017-12-25T08:16:17.636Z,63.50
2017-12-25T08:18:45.985Z,63.70
2017-12-25T08:21:13.547Z,63.70
2017-12-25T08:23:41.110Z,63.70
2017-12-25T08:26:08.676Z,63.00
2017-12-25T08:28:36.214Z,62.80
2017-12-25T08:31:03.820Z,62.50
2017-12-25T08:33:32.185Z,61.70
2017-12-25T08:36:01.721Z,61.70
2017-12-25T08:38:29.261Z,61.70
2017-12-25T08:40:56.825Z,61.50
2017-12-25T08:43:24.390Z,61.30
2017-12-25T08:45:51.977Z,61.00
2017-12-25T08:48:19.528Z,60.60
2017-12-25T08:50:47.091Z,60.30
2017-12-25T08:53:14.743Z,59.80
2017-12-25T08:55:42.298Z,60.00
2017-12-25T08:58:09.830Z,59.60
2017-12-25T09:00:37.388Z,59.30
2017-12-25T09:03:04.946Z,59.40
2017-12-25T09:05:32.482Z,59.10
2017-12-25T09:08:00.051Z,58.90
2017-12-25T09:10:27.583Z,58.80
2017-12-25T09:12:55.136Z,58.60
2017-12-25T09:15:22.648Z,58.50
2017-12-25T09:17:50.208Z,58.30
2017-12-25T09:20:18.564Z,58.20
2017-12-25T09:22:46.110Z,58.20
2017-12-25T09:25:13.697Z,58.10
2017-12-25T09:27:41.244Z,58.10
2017-12-25T09:30:08.779Z,57.80
2017-12-25T09:32:36.335Z,57.90
2017-12-25T09:35:04.323Z,58.10
2017-12-25T09:37:32.835Z,58.10
2017-12-25T09:40:00.368Z,58.10
2017-12-25T09:42:27.950Z,58.30
2017-12-25T09:44:55.485Z,58.10
2017-12-25T09:47:23.069Z,57.90
2017-12-25T09:49:51.375Z,57.70
2017-12-25T09:52:18.916Z,57.70
2017-12-25T09:54:47.339Z,57.60
2017-12-25T09:57:14.870Z,57.50
2017-12-25T09:59:43.261Z,57.40
2017-12-25T10:02:10.836Z,57.30
2017-12-25T10:04:38.439Z,57.20
2017-12-25T10:07:06.030Z,57.20
2017-12-25T10:09:33.610Z,57.20
2017-12-25T10:12:01.174Z,57.10
2017-12-25T10:14:28.691Z,56.90
2017-12-25T10:16:57.015Z,56.70
2017-12-25T10:19:24.583Z,56.60
2017-12-25T10:21:52.162Z,56.50
2017-12-25T10:24:19.733Z,56.30
2017-12-25T10:26:47.303Z,56.50
2017-12-25T10:29:14.883Z,56.30
2017-12-25T10:31:42.651Z,56.40
2017-12-25T10:34:10.957Z,56.40
2017-12-25T10:36:38.554Z,56.40
2017-12-25T10:39:06.127Z,56.40
2017-12-25T10:41:33.657Z,56.40
2017-12-25T10:44:01.210Z,56.30
2017-12-25T10:46:28.738Z,56.40
2017-12-25T10:48:56.304Z,56.10
2017-12-25T10:51:23.919Z,56.10
2017-12-25T10:53:51.520Z,56.10
2017-12-25T10:56:19.148Z,56.10
2017-12-25T10:58:46.701Z,56.00
2017-12-25T11:01:14.287Z,55.90
2017-12-25T11:03:41.874Z,55.90
2017-12-25T11:06:09.457Z,55.90
2017-12-25T11:08:37.018Z,55.90
2017-12-25T11:11:04.568Z,55.90
2017-12-25T11:13:32.158Z,55.90
2017-12-25T11:15:59.697Z,55.80
2017-12-25T11:18:27.228Z,55.70
2017-12-25T11:20:54.798Z,55.90
2017-12-25T11:23:22.367Z,55.70
2017-12-25T11:25:49.909Z,55.70
2017-12-25T11:28:17.494Z,55.80
2017-12-25T11:30:45.061Z,55.60
2017-12-25T11:33:12.594Z,55.60
2017-12-25T11:35:40.142Z,55.60
2017-12-25T11:38:07.715Z,55.60
2017-12-25T11:40:35.347Z,55.60
2017-12-25T11:43:03.588Z,55.60
2017-12-25T11:45:31.123Z,55.70
2017-12-25T11:47:58.694Z,55.80
2017-12-25T11:50:26.248Z,55.70
2017-12-25T11:52:54.016Z,55.50
2017-12-25T11:55:21.592Z,55.50
2017-12-25T11:57:49.131Z,55.50
2017-12-25T12:00:16.754Z,55.50
2017-12-25T12:02:44.313Z,55.40
2017-12-25T12:05:11.917Z,55.30
2017-12-25T12:07:39.533Z,55.40
2017-12-25T12:10:07.834Z,55.40
2017-12-25T12:12:35.378Z,55.50
2017-12-25T12:15:03.049Z,55.50
2017-12-25T12:17:30.631Z,55.40
2017-12-25T12:19:58.163Z,55.40
2017-12-25T12:22:25.732Z,55.40
2017-12-25T12:24:53.275Z,55.50
2017-12-25T12:27:20.849Z,55.50
2017-12-25T12:29:48.447Z,55.60
2017-12-25T12:32:16.082Z,55.60
2017-12-25T12:34:43.640Z,55.50
2017-12-25T12:37:11.222Z,55.60
2017-12-25T12:39:38.757Z,55.50
2017-12-25T12:42:06.329Z,55.60
2017-12-25T12:44:33.895Z,55.70
2017-12-25T12:47:01.538Z,55.80
2017-12-25T12:49:29.079Z,55.80
2017-12-25T12:51:56.673Z,55.80
2017-12-25T12:54:25.296Z,55.90
2017-12-25T12:56:52.884Z,55.90
2017-12-25T12:59:20.462Z,55.80
2017-12-25T13:01:48.031Z,55.70
2017-12-25T13:04:15.608Z,55.80
2017-12-25T13:06:43.157Z,55.70
2017-12-25T13:09:10.727Z,55.90
2017-12-25T13:11:38.320Z,55.90
2017-12-25T13:14:05.867Z,55.90
2017-12-25T13:16:33.453Z,56.00
2017-12-25T13:19:01.008Z,56.10
2017-12-25T13:21:28.555Z,56.20
2017-12-25T13:23:56.111Z,56.20
2017-12-25T13:26:23.695Z,56.20
2017-12-25T13:28:52.007Z,56.20
2017-12-25T13:31:19.546Z,56.20
2017-12-25T13:33:47.119Z,56.30
2017-12-25T13:36:14.719Z,56.30
2017-12-25T13:38:42.296Z,56.40
2017-12-25T13:41:10.628Z,56.50
2017-12-25T13:43:38.223Z,56.30
2017-12-25T13:46:05.753Z,56.40
2017-12-25T13:48:34.200Z,56.50
2017-12-25T13:51:01.719Z,56.60
2017-12-25T13:53:29.298Z,56.60
2017-12-25T13:55:57.601Z,56.70
2017-12-25T13:58:25.133Z,56.70
2017-12-25T14:00:53.462Z,57.00
2017-12-25T14:03:21.060Z,56.90
2017-12-25T14:05:48.619Z,56.80
2017-12-25T14:08:16.188Z,56.90
2017-12-25T14:10:44.935Z,56.10
2017-12-25T14:13:12.473Z,56.90
2017-12-25T14:15:40.034Z,57.00
2017-12-25T14:18:07.565Z,57.00
2017-12-25T14:20:35.146Z,57.20
2017-12-25T14:23:02.771Z,57.20
2017-12-25T14:25:31.065Z,57.20
2017-12-25T14:27:58.758Z,57.20
2017-12-25T14:30:26.290Z,57.10
2017-12-25T14:32:53.826Z,57.10
2017-12-25T14:35:21.382Z,57.30
2017-12-25T14:37:48.941Z,57.30
2017-12-25T14:40:16.518Z,57.20
2017-12-25T14:42:44.063Z,57.30
2017-12-25T14:45:11.612Z,57.40
2017-12-25T14:47:39.241Z,57.30
2017-12-25T14:50:06.804Z,57.50
2017-12-25T14:52:34.382Z,57.50
2017-12-25T14:55:01.947Z,57.50
2017-12-25T14:57:29.497Z,57.60
2017-12-25T14:59:57.052Z,57.60
2017-12-25T15:02:24.679Z,57.60
2017-12-25T15:04:52.201Z,57.70
2017-12-25T15:07:19.751Z,57.70
2017-12-25T15:09:47.308Z,57.90
2017-12-25T15:12:14.868Z,57.90
2017-12-25T15:14:42.423Z,58.00
2017-12-25T15:17:09.986Z,58.00
2017-12-25T15:19:37.546Z,58.20
2017-12-25T15:22:05.098Z,58.20
2017-12-25T15:24:32.623Z,58.30
2017-12-25T15:27:00.220Z,58.30
2017-12-25T15:29:27.743Z,58.40
2017-12-25T15:31:55.287Z,58.50
2017-12-25T15:34:22.897Z,58.50
2017-12-25T15:36:50.443Z,58.50
2017-12-25T15:39:18.030Z,58.70
2017-12-25T15:41:45.554Z,58.80
2017-12-25T15:44:13.132Z,58.80
2017-12-25T15:46:40.663Z,58.80
2017-12-25T15:49:08.212Z,58.80
2017-12-25T15:51:35.743Z,59.10
2017-12-25T15:54:03.328Z,59.00
2017-12-25T15:56:31.442Z,59.00
2017-12-25T15:58:59.002Z,59.00
2017-12-25T16:01:26.563Z,59.10
2017-12-25T16:03:54.323Z,59.30
2017-12-25T16:06:21.904Z,59.30
2017-12-25T16:08:49.486Z,59.30
2017-12-25T16:11:17.795Z,59.50
2017-12-25T16:13:45.342Z,59.50
2017-12-25T16:16:12.945Z,59.60
2017-12-25T16:18:40.478Z,59.50
2017-12-25T16:21:08.015Z,59.50
2017-12-25T16:23:36.363Z,59.70
2017-12-25T16:26:03.891Z,59.70
2017-12-25T16:28:31.430Z,59.70
2017-12-25T16:30:58.992Z,59.70
2017-12-25T16:33:26.519Z,59.90
2017-12-25T16:35:54.115Z,60.00
2017-12-25T16:38:21.695Z,60.00
2017-12-25T16:40:49.260Z,60.10
2017-12-25T16:43:16.834Z,60.10
2017-12-25T16:45:44.384Z,60.20
2017-12-25T16:48:11.898Z,60.10
2017-12-25T16:50:39.453Z,60.30
2017-12-25T16:53:07.000Z,60.00
2017-12-25T16:55:35.310Z,60.00
2017-12-25T16:58:02.868Z,59.90
2017-12-25T17:00:30.414Z,59.90
2017-12-25T17:02:58.015Z,59.90
2017-12-25T17:05:25.551Z,59.90
2017-12-25T17:07:53.132Z,59.80
2017-12-25T17:10:20.655Z,59.90
2017-12-25T17:12:48.237Z,59.80
2017-12-25T17:15:15.762Z,59.80
2017-12-25T17:17:43.348Z,59.80
2017-12-25T17:20:10.880Z,59.70
2017-12-25T17:22:38.403Z,59.70
2017-12-25T17:25:06.052Z,59.70
2017-12-25T17:27:33.560Z,59.70
2017-12-25T17:30:01.121Z,59.70
2017-12-25T17:32:28.682Z,59.70
2017-12-25T17:34:57.059Z,59.80
2017-12-25T17:37:24.601Z,59.80
2017-12-25T17:39:52.979Z,59.80
2017-12-25T17:42:20.511Z,59.80
2017-12-25T17:44:48.097Z,59.90
2017-12-25T17:47:15.620Z,59.90
2017-12-25T17:49:43.188Z,60.60
2017-12-25T17:52:10.722Z,60.00
2017-12-25T17:54:38.302Z,60.00
2017-12-25T17:57:05.865Z,60.00
2017-12-25T17:59:33.450Z,60.00
2017-12-25T18:02:01.099Z,60.10
2017-12-25T18:04:28.639Z,60.30
2017-12-25T18:06:56.277Z,61.00
2017-12-25T18:09:23.846Z,60.40
2017-12-25T18:11:51.461Z,60.50
2017-12-25T18:14:19.038Z,60.60
2017-12-25T18:16:46.574Z,60.70
2017-12-25T18:19:14.108Z,60.80
2017-12-25T18:21:41.660Z,61.00
2017-12-25T18:24:09.224Z,61.00
2017-12-25T18:26:36.761Z,61.10
2017-12-25T18:29:04.322Z,61.10
2017-12-25T18:31:31.955Z,61.30
2017-12-25T18:33:59.529Z,61.30
2017-12-25T18:36:27.148Z,61.40
2017-12-25T18:38:54.798Z,61.70
2017-12-25T18:41:22.383Z,61.70
2017-12-25T18:43:49.932Z,61.90
2017-12-25T18:46:17.510Z,61.80
2017-12-25T18:48:45.106Z,61.80
2017-12-25T18:51:12.644Z,61.80
2017-12-25T18:53:40.187Z,62.60
2017-12-25T18:56:07.889Z,61.90
2017-12-25T18:58:35.493Z,62.00
2017-12-25T19:01:03.050Z,62.10
2017-12-25T19:03:30.719Z,62.20
2017-12-25T19:05:58.433Z,62.00
2017-12-25T19:08:27.040Z,62.20
2017-12-25T19:10:54.645Z,62.30
2017-12-25T19:13:22.334Z,62.40
2017-12-25T19:15:49.952Z,62.40
2017-12-25T19:18:17.565Z,62.50
2017-12-25T19:20:45.173Z,62.60
2017-12-25T19:23:12.854Z,62.60
2017-12-25T19:25:41.004Z,62.50
2017-12-25T19:28:08.564Z,62.50
2017-12-25T19:30:36.136Z,62.50
2017-12-25T19:33:03.689Z,62.50
2017-12-25T19:35:31.289Z,62.50
2017-12-25T19:37:58.890Z,62.60
2017-12-25T19:40:26.428Z,62.60
2017-12-25T19:42:54.015Z,62.40
2017-12-25T19:45:21.587Z,62.50
2017-12-25T19:47:49.192Z,62.70
2017-12-25T19:50:16.751Z,62.60
2017-12-25T19:52:44.280Z,62.60
2017-12-25T19:55:11.956Z,62.60
2017-12-25T19:57:40.263Z,62.70
2017-12-25T20:00:07.814Z,62.70
2017-12-25T20:02:35.425Z,62.60
2017-12-25T20:05:03.058Z,62.70
2017-12-25T20:07:30.592Z,62.60
2017-12-25T20:09:58.191Z,62.70
2017-12-25T20:12:25.934Z,62.90
2017-12-25T20:14:54.636Z,62.80
2017-12-25T20:17:22.375Z,62.80
2017-12-25T20:19:49.976Z,62.80
2017-12-25T20:22:17.583Z,62.80
2017-12-25T20:24:45.193Z,62.70
2017-12-25T20:27:12.754Z,62.50
2017-12-25T20:29:40.533Z,62.80
2017-12-25T20:32:08.144Z,62.80
2017-12-25T20:34:35.762Z,62.70
2017-12-25T20:37:03.360Z,62.90
2017-12-25T20:39:30.992Z,62.80
2017-12-25T20:41:58.748Z,62.80
2017-12-25T20:44:26.419Z,62.80
2017-12-25T20:46:54.038Z,62.90
2017-12-25T20:49:21.620Z,62.80
2017-12-25T20:51:49.271Z,62.90
2017-12-25T20:54:16.886Z,63.00
2017-12-25T20:56:44.508Z,63.00
2017-12-25T20:59:12.385Z,63.00
2017-12-25T21:01:39.966Z,62.90
2017-12-25T21:04:07.552Z,63.00
2017-12-25T21:06:35.072Z,62.90
2017-12-25T21:09:02.669Z,63.00
2017-12-25T21:11:30.194Z,63.10
2017-12-25T21:13:57.889Z,63.10
2017-12-25T21:16:25.525Z,63.10
2017-12-25T21:18:53.857Z,63.20
2017-12-25T21:21:21.472Z,63.20
2017-12-25T21:23:49.036Z,63.00
2017-12-25T21:26:16.644Z,63.10
2017-12-25T21:28:44.168Z,63.20
2017-12-25T21:31:11.736Z,63.10
2017-12-25T21:33:39.372Z,63.50
2017-12-25T21:36:06.965Z,63.60
2017-12-25T21:38:34.490Z,63.70
2017-12-25T21:41:02.573Z,63.80
2017-12-25T21:43:30.102Z,64.00
2017-12-25T21:45:58.470Z,63.70
2017-12-25T21:48:26.065Z,63.70
2017-12-25T21:50:53.668Z,63.70
2017-12-25T21:53:21.252Z,63.60
2017-12-25T21:55:48.908Z,63.80
2017-12-25T21:58:16.455Z,63.80
2017-12-25T22:00:43.987Z,63.80
2017-12-25T22:03:11.574Z,63.70
2017-12-25T22:05:39.107Z,64.00
2017-12-25T22:08:06.657Z,64.10
2017-12-25T22:10:34.350Z,64.30
2017-12-25T22:13:01.929Z,64.20
2017-12-25T22:15:29.452Z,64.40
2017-12-25T22:17:57.002Z,64.20
2017-12-25T22:20:24.548Z,64.30
2017-12-25T22:22:52.230Z,64.20
2017-12-25T22:25:19.811Z,64.30
2017-12-25T22:27:47.325Z,64.40
2017-12-25T22:30:14.876Z,64.30
2017-12-25T22:32:43.209Z,64.20
2017-12-25T22:35:10.781Z,64.20
2017-12-25T22:37:38.385Z,64.20
2017-12-25T22:40:06.741Z,64.50
2017-12-25T22:42:34.494Z,64.30
2017-12-25T22:45:02.043Z,64.10
2017-12-25T22:47:29.623Z,64.20
2017-12-25T22:49:57.923Z,64.40
2017-12-25T22:52:25.518Z,64.20
2017-12-25T22:54:53.082Z,64.30
2017-12-25T22:57:20.704Z,64.20
2017-12-25T22:59:48.237Z,64.30
2017-12-25T23:02:15.801Z,64.30
2017-12-25T23:04:43.373Z,64.20
2017-12-25T23:07:11.058Z,64.40
2017-12-25T23:09:38.640Z,64.30
2017-12-25T23:12:06.580Z,64.40
2017-12-25T23:14:34.105Z,64.60
2017-12-25T23:17:01.630Z,64.60
2017-12-25T23:19:29.317Z,64.70
2017-12-25T23:21:57.667Z,64.70
2017-12-25T23:24:25.255Z,64.70
2017-12-25T23:26:53.158Z,64.70
2017-12-25T23:29:20.678Z,64.90
2017-12-25T23:31:48.220Z,65.00
2017-12-25T23:34:15.789Z,64.90
2017-12-25T23:36:43.348Z,65.00
2017-12-25T23:39:10.894Z,65.00
2017-12-25T23:41:38.504Z,64.90
2017-12-25T23:44:06.065Z,64.80
2017-12-25T23:46:33.631Z,64.90
2017-12-25T23:49:01.149Z,65.00
2017-12-25T23:51:29.664Z,65.00
2017-12-25T23:53:57.192Z,64.80
2017-12-25T23:56:24.739Z,65.70
2017-12-25T23:58:52.327Z,65.10
